Time;durP1;ratioP1;P1;durP2;ratioP2;P2;SDS_P1;SDS_P2;PMS_P1;PMS_P2;Temp;Humidity;BMP_temperature;BMP_pressure;BME280_temperature;BME280_humidity;BME280_pressure;Samples;Min_cycle;Max_cycle;Signal;HPM_P1;HPM_P2
2022/10/29 00:00:53;;;;;;;13.27;4.53;;;13.50;99.90;;;;;;6128326;19;19915;-72
2022/10/29 00:02:56;;;;;;;16.10;4.80;;;13.50;99.90;;;;;;6128199;19;19927;-72
2022/10/29 00:05:00;;;;;;;14.73;4.63;;;13.50;99.90;;;;;;6128311;19;19914;-72
2022/10/29 00:07:04;;;;;;;17.88;4.38;;;13.00;99.90;;;;;;6128224;19;19918;-72
2022/10/29 00:09:12;;;;;;;14.82;4.72;;;13.30;99.90;;;;;;6128139;19;19918;-72
2022/10/29 00:11:18;;;;;;;19.55;4.97;;;13.40;99.90;;;;;;6128232;19;19910;-72
2022/10/29 00:13:22;;;;;;;20.10;5.03;;;13.30;99.90;;;;;;6126544;19;19945;-72
2022/10/29 00:15:26;;;;;;;11.90;4.70;;;13.50;99.90;;;;;;6127961;19;19922;-72
2022/10/29 00:17:29;;;;;;;16.65;5.43;;;13.40;99.90;;;;;;6125540;19;19917;-72
2022/10/29 00:19:33;;;;;;;16.13;6.10;;;13.40;99.90;;;;;;6127999;19;19936;-72
2022/10/29 00:21:39;;;;;;;17.70;4.75;;;13.30;99.90;;;;;;6128207;19;19937;-72
2022/10/29 00:23:43;;;;;;;25.45;4.90;;;13.50;99.90;;;;;;6127758;19;19930;-72
2022/10/29 00:25:49;;;;;;;14.65;4.10;;;13.50;99.90;;;;;;6127807;19;19925;-72
2022/10/29 00:27:53;;;;;;;15.75;4.05;;;13.30;99.90;;;;;;6127654;19;20248;-72
2022/10/29 00:29:57;;;;;;;15.35;4.07;;;13.40;99.90;;;;;;6127565;19;19937;-72
2022/10/29 00:32:01;;;;;;;21.88;5.38;;;13.40;99.90;;;;;;6127421;19;19915;-72
2022/10/29 00:34:05;;;;;;;14.40;4.45;;;13.40;99.90;;;;;;6126034;19;19915;-72
2022/10/29 00:36:12;;;;;;;13.00;4.53;;;12.90;99.90;;;;;;6127552;19;19935;-71
2022/10/29 00:38:16;;;;;;;18.73;4.32;;;13.30;99.90;;;;;;6127602;19;19945;-72
2022/10/29 00:40:20;;;;;;;18.05;5.40;;;13.10;99.90;;;;;;6127385;19;19945;-71
2022/10/29 00:42:27;;;;;;;16.83;5.40;;;13.20;99.90;;;;;;6127519;19;19915;-72
2022/10/29 00:44:34;;;;;;;15.07;4.90;;;13.20;99.90;;;;;;6126952;19;19927;-72
2022/10/29 00:46:38;;;;;;;16.27;5.60;;;13.20;99.90;;;;;;6127192;19;19914;-72
2022/10/29 00:48:46;;;;;;;18.13;5.43;;;13.00;99.90;;;;;;6127337;19;19944;-72
2022/10/29 00:50:51;;;;;;;20.85;5.00;;;13.10;99.90;;;;;;6127316;19;20021;-72
2022/10/29 00:52:55;;;;;;;16.63;5.50;;;12.80;99.90;;;;;;6126553;19;19941;-72
2022/10/29 00:55:03;;;;;;;21.05;5.13;;;13.10;99.90;;;;;;6125970;19;19922;-72
2022/10/29 00:57:12;;;;;;;19.92;5.60;;;12.90;99.90;;;;;;6127128;19;20230;-71
2022/10/29 00:59:19;;;;;;;15.13;4.65;;;12.80;99.90;;;;;;6127155;19;20362;-72
2022/10/29 01:01:23;;;;;;;17.95;4.47;;;13.00;99.90;;;;;;6127248;19;19940;-72
2022/10/29 01:03:27;;;;;;;18.08;5.88;;;12.90;99.90;;;;;;6127508;19;19934;-71
2022/10/29 01:05:33;;;;;;;16.35;4.75;;;13.10;99.90;;;;;;6126787;19;19911;-73
2022/10/29 01:07:37;;;;;;;22.05;5.05;;;13.00;99.90;;;;;;6126704;19;19910;-72
2022/10/29 01:09:41;;;;;;;20.95;5.63;;;13.00;99.90;;;;;;6126955;19;19914;-72
2022/10/29 01:11:56;;;;;;;16.88;5.13;;;12.80;99.90;;;;;;6126644;19;19919;-72
2022/10/29 01:14:05;;;;;;;;;;;13.10;99.90;;;;;;6128570;19;20240;-72
2022/10/29 01:16:19;;;;;;;21.67;5.70;;;12.70;99.90;;;;;;6126526;19;19937;-72
2022/10/29 01:18:32;;;;;;;20.80;5.45;;;12.60;99.90;;;;;;6125015;19;20299;-71
2022/10/29 01:21:04;;;;;;;22.23;5.18;;;12.90;99.90;;;;;;6126473;19;20271;-72
2022/10/29 01:23:27;;;;;;;16.58;5.03;;;12.80;99.90;;;;;;6126201;19;19910;-72
2022/10/29 01:25:54;;;;;;;13.98;4.47;;;12.80;99.90;;;;;;6126167;19;19953;-72
2022/10/29 01:28:08;;;;;;;17.33;5.03;;;12.90;99.90;;;;;;6127673;19;19930;-72
2022/10/29 01:30:20;;;;;;;14.32;4.30;;;12.70;99.90;;;;;;6131941;19;19914;-73
2022/10/29 01:32:32;;;;;;;18.17;3.88;;;12.80;99.90;;;;;;6131229;19;19945;-72
2022/10/29 01:34:44;;;;;;;13.20;4.15;;;12.80;99.90;;;;;;6131636;19;20377;-72
2022/10/29 01:36:55;;;;;;;14.57;4.03;;;12.70;99.90;;;;;;6132130;19;19918;-72
2022/10/29 01:39:08;;;;;;;12.70;4.00;;;12.60;99.90;;;;;;6131660;19;19910;-73
2022/10/29 01:41:21;;;;;;;14.25;4.03;;;12.80;99.90;;;;;;6131491;19;20009;-72
2022/10/29 01:43:31;;;;;;;17.45;4.28;;;12.70;99.90;;;;;;6131530;19;19945;-72
2022/10/29 01:45:41;;;;;;;16.83;4.40;;;13.30;99.90;;;;;;6131550;19;19935;-72
2022/10/29 01:47:52;;;;;;;12.63;3.95;;;12.70;99.90;;;;;;6131419;19;19922;-72
2022/10/29 01:50:01;;;;;;;15.15;4.25;;;12.70;99.90;;;;;;6131204;19;19910;-72
2022/10/29 01:52:08;;;;;;;13.05;4.18;;;12.60;99.90;;;;;;6131509;19;19933;-72
2022/10/29 01:54:13;;;;;;;13.88;3.67;;;12.50;99.90;;;;;;6131031;19;20335;-72
2022/10/29 01:56:17;;;;;;;11.55;4.00;;;12.40;99.90;;;;;;6131230;19;19941;-73
2022/10/29 01:58:21;;;;;;;16.50;4.47;;;12.60;99.90;;;;;;6131194;19;20375;-73
2022/10/29 02:00:25;;;;;;;12.35;3.95;;;12.40;99.90;;;;;;6131327;19;19915;-72
2022/10/29 02:02:40;;;;;;;16.08;4.40;;;13.90;99.90;;;;;;6131371;19;20235;-72
2022/10/29 02:05:06;;;;;;;10.23;3.47;;;12.40;99.90;;;;;;6130930;19;19937;-72
2022/10/29 02:07:14;;;;;;;;;;;12.40;99.90;;;;;;6133227;19;20339;-73
2022/10/29 02:09:24;;;;;;;7.85;3.25;;;12.40;99.90;;;;;;6131334;19;19919;-72
2022/10/29 02:11:34;;;;;;;8.77;3.20;;;12.30;99.90;;;;;;6131042;19;19940;-72
2022/10/29 02:13:46;;;;;;;17.13;4.63;;;12.50;99.90;;;;;;6129084;19;19986;-72
2022/10/29 02:15:54;;;;;;;16.35;3.55;;;12.50;99.90;;;;;;6130847;19;19918;-72
2022/10/29 02:18:01;;;;;;;8.02;3.25;;;12.30;99.90;;;;;;6130792;19;19918;-73
2022/10/29 02:20:11;;;;;;;10.82;3.03;;;12.30;99.90;;;;;;6130833;19;19986;-72
2022/10/29 02:22:14;;;;;;;8.73;2.72;;;12.20;99.90;;;;;;6130521;19;19923;-72
2022/10/29 02:24:18;;;;;;;7.00;2.42;;;12.10;99.90;;;;;;6130776;19;19941;-72
2022/10/29 02:26:22;;;;;;;5.60;2.40;;;12.10;99.90;;;;;;6130433;19;20286;-72
2022/10/29 02:28:26;;;;;;;6.18;2.17;;;11.40;99.90;;;;;;6130578;19;20352;-72
2022/10/29 02:30:30;;;;;;;6.35;2.28;;;;;;;;;;6130304;19;19910;-72
2022/10/29 02:32:34;;;;;;;6.63;3.65;;;11.70;99.90;;;;;;6129933;19;19911;-72
2022/10/29 02:34:38;;;;;;;30.23;3.30;;;11.80;99.90;;;;;;6130457;19;19910;-72
2022/10/29 02:36:45;;;;;;;19.23;2.75;;;12.00;99.90;;;;;;6133130;19;19930;-72
2022/10/29 02:38:48;;;;;;;37.72;3.50;;;12.00;99.90;;;;;;6130170;19;20287;-72
2022/10/29 02:40:52;;;;;;;8.73;2.72;;;11.70;99.90;;;;;;6128773;19;19926;-72
2022/10/29 02:42:56;;;;;;;7.57;2.40;;;11.90;99.90;;;;;;6130281;19;20304;-72
2022/10/29 02:45:00;;;;;;;24.27;2.90;;;11.70;99.90;;;;;;6129796;19;20566;-72
2022/10/29 02:47:04;;;;;;;14.82;2.53;;;11.60;99.90;;;;;;6130006;19;19933;-72
2022/10/29 02:49:08;;;;;;;6.05;2.10;;;11.70;99.90;;;;;;6130101;19;19941;-72
2022/10/29 02:51:13;;;;;;;6.28;2.33;;;11.60;99.90;;;;;;6129823;19;19937;-72
2022/10/29 02:53:19;;;;;;;11.63;2.50;;;11.60;99.90;;;;;;6129231;19;20377;-72
2022/10/29 02:55:24;;;;;;;9.15;2.13;;;;;;;;;;6128703;19;19930;-72
2022/10/29 02:57:28;;;;;;;7.53;2.13;;;;;;;;;;6129897;19;19940;-72
2022/10/29 02:59:31;;;;;;;8.02;1.95;;;11.70;99.90;;;;;;6129904;19;19919;-73
2022/10/29 03:01:36;;;;;;;7.50;2.67;;;;;;;;;;6129963;19;19922;-72
2022/10/29 03:03:40;;;;;;;8.88;2.05;;;;;;;;;;6129680;19;19922;-72
2022/10/29 03:05:43;;;;;;;10.77;2.50;;;11.60;99.90;;;;;;6129870;19;20282;-73
2022/10/29 03:07:48;;;;;;;5.65;1.80;;;11.20;99.90;;;;;;6129677;19;19948;-72
2022/10/29 03:09:54;;;;;;;5.45;2.30;;;11.50;99.90;;;;;;6129595;19;19911;-72
2022/10/29 03:11:58;;;;;;;3.17;1.77;;;11.50;99.90;;;;;;6129793;19;19919;-72
2022/10/29 03:14:02;;;;;;;9.50;2.65;;;11.70;99.90;;;;;;6127731;19;19914;-72
2022/10/29 03:16:06;;;;;;;5.85;2.08;;;11.50;99.90;;;;;;6129466;19;19915;-72
2022/10/29 03:18:10;;;;;;;7.60;1.85;;;11.70;99.90;;;;;;6129437;19;20312;-72
2022/10/29 03:20:14;;;;;;;12.55;2.42;;;11.70;99.90;;;;;;6129347;19;20240;-72
2022/10/29 03:22:18;;;;;;;26.83;2.58;;;11.50;99.90;;;;;;6129375;19;19918;-72
2022/10/29 03:24:22;;;;;;;12.55;2.10;;;11.50;99.90;;;;;;6129593;19;19911;-72
2022/10/29 03:26:29;;;;;;;39.65;2.92;;;11.50;99.90;;;;;;6129591;19;19921;-72
2022/10/29 03:28:33;;;;;;;20.08;2.33;;;11.50;99.90;;;;;;6129337;19;19937;-72
2022/10/29 03:30:37;;;;;;;24.48;2.25;;;11.70;99.90;;;;;;6128969;19;20335;-72
2022/10/29 03:32:41;;;;;;;17.77;1.98;;;11.50;99.90;;;;;;6128771;19;19940;-72
2022/10/29 03:34:45;;;;;;;54.83;3.53;;;11.60;99.90;;;;;;6128863;19;19982;-72
2022/10/29 03:36:50;;;;;;;27.25;2.83;;;11.60;99.90;;;;;;6128857;19;19922;-72
2022/10/29 03:38:53;;;;;;;20.15;2.30;;;11.50;99.90;;;;;;6129007;19;19945;-72
2022/10/29 03:40:57;;;;;;;37.10;2.80;;;11.60;99.90;;;;;;6128903;19;19915;-72
2022/10/29 03:43:04;;;;;;;30.50;2.40;;;11.60;99.90;;;;;;6128890;19;19941;-72
2022/10/29 03:45:10;;;;;;;11.60;2.10;;;11.40;99.90;;;;;;6128513;19;20290;-72
2022/10/29 03:50:17;;;;;;;20.40;2.20;;;11.40;99.90;;;;;;6125683;19;19919;-72
2022/10/29 03:52:21;;;;;;;6.97;1.77;;;11.40;99.90;;;;;;6125999;19;19938;-74
2022/10/29 03:54:25;;;;;;;15.18;1.90;;;;;;;;;;6130476;19;19918;-72
2022/10/29 03:56:29;;;;;;;20.25;2.20;;;11.30;99.90;;;;;;6128669;19;19919;-72
2022/10/29 03:58:35;;;;;;;4.38;1.67;;;11.50;99.90;;;;;;6130465;19;19933;-72
2022/10/29 04:00:39;;;;;;;6.38;2.03;;;11.30;99.90;;;;;;6128451;19;19937;-72
2022/10/29 04:02:43;;;;;;;13.00;2.03;;;11.60;99.90;;;;;;6128130;19;19914;-72
2022/10/29 04:04:47;;;;;;;7.72;1.80;;;11.60;99.90;;;;;;6128162;19;20029;-72
2022/10/29 04:06:51;;;;;;;12.43;2.10;;;11.60;99.90;;;;;;6128363;19;20271;-72
2022/10/29 04:08:56;;;;;;;10.18;1.70;;;11.70;99.90;;;;;;6128446;19;19937;-72
2022/10/29 04:11:00;;;;;;;11.98;2.10;;;11.30;99.90;;;;;;6131281;19;19937;-72
2022/10/29 04:13:04;;;;;;;10.27;2.30;;;11.60;99.90;;;;;;6128114;19;20332;-72
2022/10/29 04:15:11;;;;;;;12.02;2.20;;;11.50;99.90;;;;;;6128134;19;20335;-72
2022/10/29 04:17:15;;;;;;;10.20;1.95;;;;;;;;;;6127929;19;20370;-72
2022/10/29 04:19:19;;;;;;;17.90;2.15;;;11.60;99.90;;;;;;6127466;19;19918;-72
2022/10/29 04:21:23;;;;;;;9.27;2.10;;;;;;;;;;6128013;19;19937;-72
2022/10/29 04:23:27;;;;;;;10.40;1.73;;;;;;;;;;6127752;19;20336;-72
2022/10/29 04:25:31;;;;;;;7.68;1.85;;;11.60;99.90;;;;;;6128002;19;19914;-72
2022/10/29 04:27:35;;;;;;;20.35;2.35;;;11.60;99.90;;;;;;6127846;19;19919;-72
2022/10/29 04:29:39;;;;;;;10.75;2.15;;;11.60;99.90;;;;;;6128430;19;19914;-72
2022/10/29 04:31:45;;;;;;;25.55;2.80;;;11.60;99.90;;;;;;6127745;19;20354;-72
2022/10/29 04:33:49;;;;;;;15.27;2.50;;;11.50;99.90;;;;;;6126489;19;20342;-72
2022/10/29 04:35:54;;;;;;;9.15;2.20;;;11.40;99.90;;;;;;6127591;19;20331;-72
2022/10/29 04:37:58;;;;;;;12.80;2.63;;;;;;;;;;6127538;19;20296;-72
2022/10/29 04:40:02;;;;;;;11.32;2.17;;;11.50;99.90;;;;;;6127881;19;19911;-72
2022/10/29 04:42:06;;;;;;;22.00;2.53;;;11.50;99.90;;;;;;6127615;19;20335;-72
2022/10/29 04:44:10;;;;;;;16.13;2.40;;;11.70;99.90;;;;;;6127688;19;19915;-72
2022/10/29 04:46:14;;;;;;;21.95;3.25;;;11.20;99.90;;;;;;6129492;19;20303;-72
2022/10/29 04:48:22;;;;;;;17.77;2.88;;;11.60;99.90;;;;;;6127260;19;19919;-72
2022/10/29 04:50:26;;;;;;;25.52;2.97;;;11.50;99.90;;;;;;6127427;19;19911;-72
2022/10/29 04:52:30;;;;;;;31.25;3.13;;;;;;;;;;6127616;19;20350;-72
2022/10/29 04:54:34;;;;;;;21.40;3.42;;;11.10;99.90;;;;;;6126047;19;19919;-72
2022/10/29 04:56:38;;;;;;;10.93;3.10;;;11.40;99.90;;;;;;6128009;19;19918;-72
2022/10/29 04:58:41;;;;;;;31.88;4.00;;;11.40;99.90;;;;;;6127099;19;20278;-72
2022/10/29 05:00:46;;;;;;;29.33;3.80;;;11.50;99.90;;;;;;6127115;19;19945;-72
2022/10/29 05:02:51;;;;;;;19.70;3.92;;;11.20;99.90;;;;;;6125673;19;19915;-72
2022/10/29 05:04:57;;;;;;;31.02;4.60;;;11.20;99.90;;;;;;6126660;19;20028;-72
2022/10/29 05:07:01;;;;;;;38.08;5.05;;;11.30;99.90;;;;;;6127034;19;19952;-72
2022/10/29 05:09:05;;;;;;;19.73;4.90;;;11.30;99.90;;;;;;6126831;19;19941;-72
2022/10/29 05:11:09;;;;;;;15.32;4.32;;;11.30;99.90;;;;;;6126571;19;19914;-72
2022/10/29 05:13:14;;;;;;;24.50;5.32;;;11.30;99.90;;;;;;6126693;19;20335;-71
2022/10/29 05:15:18;;;;;;;30.25;4.93;;;11.50;99.90;;;;;;6125180;19;19928;-71
2022/10/29 05:17:22;;;;;;;35.75;5.60;;;11.40;99.90;;;;;;6126711;19;19918;-72
2022/10/29 05:19:26;;;;;;;31.90;5.57;;;11.20;99.90;;;;;;6126160;19;19919;-72
2022/10/29 05:21:32;;;;;;;21.83;4.68;;;11.10;99.90;;;;;;6126393;19;19915;-72
2022/10/29 05:23:36;;;;;;;28.48;5.03;;;11.70;99.90;;;;;;6126219;19;19940;-71
2022/10/29 05:25:42;;;;;;;33.97;4.65;;;11.30;99.90;;;;;;6126746;19;19914;-72
2022/10/29 05:27:46;;;;;;;29.15;4.90;;;11.40;99.90;;;;;;6126276;19;19915;-72
2022/10/29 05:29:50;;;;;;;20.98;4.85;;;11.50;99.90;;;;;;6125928;19;19915;-72
2022/10/29 05:31:55;;;;;;;28.10;5.03;;;11.50;99.90;;;;;;6125843;19;19915;-72
2022/10/29 05:33:59;;;;;;;19.25;5.13;;;11.50;99.90;;;;;;6124867;19;20338;-71
2022/10/29 05:36:03;;;;;;;31.92;6.72;;;11.60;99.90;;;;;;6126026;19;19923;-72
2022/10/29 05:38:12;;;;;;;37.50;5.65;;;11.60;99.90;;;;;;6125832;19;19911;-72
2022/10/29 05:40:16;;;;;;;;;;;11.60;99.90;;;;;;6128497;19;19974;-72
2022/10/29 05:42:20;;;;;;;29.90;6.05;;;11.70;99.90;;;;;;6125733;19;19941;-71
2022/10/29 05:44:24;;;;;;;31.88;6.45;;;;;;;;;;6127112;19;19921;-71
2022/10/29 05:46:28;;;;;;;39.80;5.65;;;;;;;;;;6125723;19;19914;-72
2022/10/29 05:48:32;;;;;;;38.00;6.03;;;11.60;99.90;;;;;;6125114;19;19928;-71
2022/10/29 05:50:37;;;;;;;27.95;6.38;;;11.60;99.90;;;;;;6125537;19;19941;-72
2022/10/29 05:52:41;;;;;;;48.25;7.13;;;11.50;99.90;;;;;;6125718;19;19923;-71
2022/10/29 05:54:50;;;;;;;38.03;6.40;;;11.70;99.90;;;;;;6124183;19;19914;-71
2022/10/29 05:56:54;;;;;;;30.65;6.68;;;11.80;99.90;;;;;;6125592;19;19914;-72
2022/10/29 05:58:58;;;;;;;20.90;5.30;;;;;;;;;;6125176;19;20240;-71
2022/10/29 06:01:01;;;;;;;19.65;5.45;;;11.50;99.90;;;;;;6125532;19;19914;-72
2022/10/29 06:03:06;;;;;;;32.70;5.82;;;11.90;99.90;;;;;;6125722;19;19970;-72
2022/10/29 06:05:10;;;;;;;42.85;6.18;;;11.70;99.90;;;;;;6125242;19;19915;-72
2022/10/29 06:07:14;;;;;;;32.95;6.72;;;;;;;;;;6125101;19;20252;-72
2022/10/29 06:09:18;;;;;;;53.50;8.02;;;11.80;99.90;;;;;;6124953;19;19918;-71
2022/10/29 06:11:24;;;;;;;25.17;6.68;;;11.80;99.90;;;;;;6123692;19;19923;-71
2022/10/29 06:13:26;;;;;;;29.55;6.00;;;11.70;99.90;;;;;;6124968;19;19927;-72
2022/10/29 06:15:30;;;;;;;33.97;6.90;;;11.90;99.90;;;;;;6125718;19;20282;-72
2022/10/29 06:17:34;;;;;;;27.20;7.18;;;11.60;99.90;;;;;;6130679;19;19921;-71
2022/10/29 06:19:37;;;;;;;23.63;7.00;;;11.90;99.90;;;;;;6130078;19;19929;-72
2022/10/29 06:21:41;;;;;;;31.77;7.55;;;11.80;99.90;;;;;;6130441;19;20101;-72
2022/10/29 06:23:45;;;;;;;26.00;6.95;;;11.60;99.90;;;;;;6130592;19;19937;-72
2022/10/29 06:25:49;;;;;;;30.13;7.93;;;11.80;99.90;;;;;;6130715;19;20244;-72
2022/10/29 06:28:02;;;;;;;28.63;7.20;;;11.80;99.90;;;;;;6130300;19;20282;-71
2022/10/29 06:30:08;;;;;;;28.63;7.88;;;12.10;99.90;;;;;;6130156;19;20248;-71
2022/10/29 06:32:12;;;;;;;33.75;7.70;;;;;;;;;;6129800;19;19937;-72
2022/10/29 06:34:16;;;;;;;30.10;7.75;;;12.10;99.90;;;;;;6129868;19;19914;-71
2022/10/29 06:36:20;;;;;;;31.90;8.30;;;12.30;99.90;;;;;;6130071;19;19922;-71
2022/10/29 06:38:24;;;;;;;30.63;7.82;;;11.60;99.90;;;;;;6129990;19;19918;-71
2022/10/29 06:40:28;;;;;;;25.20;7.40;;;12.10;99.90;;;;;;6130324;19;19945;-71
2022/10/29 06:42:31;;;;;;;22.63;7.35;;;11.90;99.90;;;;;;6130309;19;19918;-71
2022/10/29 06:44:39;;;;;;;18.10;7.68;;;12.10;99.90;;;;;;6130467;19;19921;-73
2022/10/29 06:46:43;;;;;;;20.70;7.53;;;12.00;99.90;;;;;;6129867;19;19966;-72
2022/10/29 06:48:47;;;;;;;24.48;6.85;;;;;;;;;;6129906;19;19911;-70
2022/10/29 06:50:51;;;;;;;23.55;7.10;;;;;;;;;;6130048;19;19937;-72
2022/10/29 06:52:57;;;;;;;29.30;6.93;;;12.10;99.90;;;;;;6129611;19;19941;-72
2022/10/29 06:55:01;;;;;;;23.05;7.10;;;12.10;99.90;;;;;;6129018;19;19922;-72
2022/10/29 06:57:05;;;;;;;27.33;7.88;;;12.10;99.90;;;;;;6129589;19;20300;-72
2022/10/29 06:59:09;;;;;;;32.75;7.65;;;12.20;99.90;;;;;;6129843;19;19911;-72
2022/10/29 07:01:15;;;;;;;26.35;9.00;;;13.00;99.90;;;;;;6129706;19;20548;-72
2022/10/29 07:03:21;;;;;;;23.50;7.45;;;12.30;99.90;;;;;;6129532;19;19915;-72
2022/10/29 07:05:25;;;;;;;36.35;7.28;;;12.10;99.90;;;;;;6129533;19;19933;-72
2022/10/29 07:07:30;;;;;;;26.17;7.35;;;11.90;99.90;;;;;;6129588;19;19915;-72
2022/10/29 07:09:34;;;;;;;26.05;6.95;;;12.20;99.90;;;;;;6129516;19;19907;-72
2022/10/29 07:11:38;;;;;;;39.97;7.95;;;12.40;99.90;;;;;;6129669;19;20371;-72
2022/10/29 07:13:42;;;;;;;22.38;7.03;;;12.40;99.90;;;;;;6129404;19;19915;-72
2022/10/29 07:15:45;;;;;;;21.33;7.28;;;11.90;99.90;;;;;;6128023;19;20407;-72
2022/10/29 07:17:59;;;;;;;23.23;7.90;;;12.50;99.90;;;;;;6129390;19;19941;-72
2022/10/29 07:20:04;;;;;;;26.40;6.95;;;12.40;99.90;;;;;;6129216;19;19914;-72
2022/10/29 07:22:08;;;;;;;31.50;7.45;;;;;;;;;;6129782;19;19915;-72
2022/10/29 07:24:12;;;;;;;29.80;7.35;;;12.40;99.90;;;;;;6129070;19;19968;-72
2022/10/29 07:26:16;;;;;;;41.85;7.63;;;12.20;99.90;;;;;;6128461;19;19915;-72
2022/10/29 07:28:22;;;;;;;34.58;7.82;;;12.50;99.90;;;;;;6128592;19;20353;-71
2022/10/29 07:30:26;;;;;;;28.27;8.07;;;12.50;99.90;;;;;;6128873;19;19947;-72
2022/10/29 07:32:30;;;;;;;25.75;7.80;;;;;;;;;;6128621;19;19914;-72
2022/10/29 07:34:36;;;;;;;28.25;8.13;;;12.60;99.90;;;;;;6128381;19;19914;-72
2022/10/29 07:36:40;;;;;;;39.00;7.85;;;12.80;99.90;;;;;;6128825;19;19918;-73
2022/10/29 07:38:44;;;;;;;34.90;7.45;;;12.80;99.90;;;;;;6128849;19;20415;-72
2022/10/29 07:40:50;;;;;;;20.33;6.55;;;12.10;99.90;;;;;;6128930;19;19911;-72
2022/10/29 07:42:54;;;;;;;27.42;7.47;;;12.30;99.90;;;;;;6132548;19;20286;-72
2022/10/29 07:44:58;;;;;;;36.20;7.65;;;;;;;;;;6128780;19;19921;-72
2022/10/29 07:47:02;;;;;;;27.65;7.47;;;12.60;99.90;;;;;;6128962;19;20339;-72
2022/10/29 07:49:06;;;;;;;30.17;7.72;;;12.70;99.90;;;;;;6128625;19;20343;-72
2022/10/29 07:51:13;;;;;;;28.98;7.78;;;12.50;99.90;;;;;;6128901;19;20339;-72
2022/10/29 07:53:17;;;;;;;30.98;8.15;;;12.80;99.90;;;;;;6128719;19;19941;-72
2022/10/29 07:55:21;;;;;;;35.38;8.35;;;12.60;99.90;;;;;;6127427;19;19928;-73
2022/10/29 07:57:24;;;;;;;28.08;8.13;;;12.60;99.90;;;;;;6128866;19;19915;-73
2022/10/29 07:59:28;;;;;;;22.27;7.45;;;12.80;99.90;;;;;;6128629;19;19910;-72
2022/10/29 08:01:34;;;;;;;29.85;7.85;;;12.70;99.90;;;;;;6128392;19;19948;-72
2022/10/29 08:03:38;;;;;;;34.58;8.55;;;12.70;99.90;;;;;;6127986;19;19941;-72
2022/10/29 08:05:42;;;;;;;20.98;8.30;;;12.70;99.90;;;;;;6128188;19;19911;-72
2022/10/29 08:07:49;;;;;;;28.27;8.68;;;12.60;99.90;;;;;;6128128;19;20255;-72
2022/10/29 08:09:53;;;;;;;33.88;8.82;;;12.90;99.90;;;;;;6128376;19;19915;-72
2022/10/29 08:11:56;;;;;;;31.70;8.70;;;12.80;99.90;;;;;;6128347;19;19919;-72
2022/10/29 08:14:01;;;;;;;31.58;10.75;;;12.90;99.90;;;;;;6128328;19;19922;-72
2022/10/29 08:16:05;;;;;;;39.67;9.60;;;;;;;;;;6127004;19;19918;-72
2022/10/29 08:18:15;;;;;;;44.17;9.98;;;13.10;99.90;;;;;;6128036;19;19919;-72
2022/10/29 08:20:20;;;;;;;36.22;10.43;;;;;;;;;;6125821;19;19918;-72
2022/10/29 08:22:23;;;;;;;34.53;10.02;;;13.10;99.90;;;;;;6128247;19;19910;-72
2022/10/29 08:24:30;;;;;;;40.72;9.88;;;13.20;99.90;;;;;;6128363;19;19949;-72
2022/10/29 08:26:34;;;;;;;45.33;10.30;;;12.90;99.90;;;;;;6127942;19;19918;-72
2022/10/29 08:28:38;;;;;;;43.83;9.98;;;13.00;99.90;;;;;;6127814;19;19927;-73
2022/10/29 08:30:44;;;;;;;45.15;10.02;;;12.80;99.90;;;;;;6127687;19;19922;-72
2022/10/29 08:32:48;;;;;;;39.75;10.40;;;12.90;99.90;;;;;;6127566;19;20077;-72
2022/10/29 08:34:52;;;;;;;32.42;10.27;;;13.10;99.90;;;;;;6127216;19;19914;-72
2022/10/29 08:36:56;;;;;;;37.42;10.52;;;13.10;99.90;;;;;;6127419;19;19918;-72
2022/10/29 08:39:00;;;;;;;31.10;11.10;;;13.20;99.90;;;;;;6125254;19;19922;-73
2022/10/29 08:41:19;;;;;;;36.15;10.35;;;13.40;99.90;;;;;;6130103;19;19914;-72
2022/10/29 08:43:51;;;;;;;34.90;10.07;;;13.20;99.90;;;;;;6127297;19;19920;-72
2022/10/29 08:45:56;;;;;;;32.17;10.93;;;12.90;99.90;;;;;;6127398;19;20360;-72
2022/10/29 08:48:24;;;;;;;34.67;12.13;;;13.40;99.90;;;;;;6127288;19;20252;-72
2022/10/29 08:50:32;;;;;;;33.70;11.10;;;13.60;99.90;;;;;;6126921;19;19919;-72
2022/10/29 08:52:39;;;;;;;31.48;10.73;;;13.40;99.90;;;;;;6127483;19;19919;-72
2022/10/29 08:54:47;;;;;;;36.08;12.32;;;13.40;99.90;;;;;;6126777;19;19937;-72
2022/10/29 08:56:56;;;;;;;22.30;10.70;;;13.30;99.90;;;;;;6124222;19;19919;-72
2022/10/29 08:59:07;;;;;;;29.95;11.27;;;13.50;99.90;;;;;;6127670;19;19918;-72
2022/10/29 09:01:13;;;;;;;27.20;11.48;;;13.20;99.90;;;;;;6127111;19;19911;-72
2022/10/29 09:03:17;;;;;;;29.33;11.13;;;;;;;;;;6127344;19;19918;-72
2022/10/29 09:05:26;;;;;;;30.85;10.98;;;13.20;99.90;;;;;;6126861;19;19941;-72
2022/10/29 09:07:43;;;;;;;25.17;11.40;;;13.40;99.90;;;;;;6126536;19;19914;-72
2022/10/29 09:09:53;;;;;;;24.70;11.10;;;13.20;99.90;;;;;;6126605;19;19915;-71
2022/10/29 09:12:12;;;;;;;22.23;11.40;;;13.90;99.90;;;;;;6126582;19;20255;-71
2022/10/29 09:14:34;;;;;;;24.70;10.88;;;13.20;99.90;;;;;;6126627;19;19932;-72
2022/10/29 09:16:45;;;;;;;27.42;10.52;;;13.10;99.90;;;;;;6123489;19;19925;-72
2022/10/29 09:19:02;;;;;;;18.63;10.57;;;13.40;99.90;;;;;;6126402;19;19919;-72
2022/10/29 09:21:15;;;;;;;27.10;10.90;;;13.60;99.90;;;;;;6126386;19;19915;-72
2022/10/29 09:23:29;;;;;;;23.52;10.57;;;13.50;99.90;;;;;;6126193;19;20344;-72
2022/10/29 09:25:40;;;;;;;21.98;10.18;;;13.70;99.90;;;;;;6126401;19;19919;-71
2022/10/29 09:28:02;;;;;;;22.92;9.98;;;13.50;99.90;;;;;;6126257;19;19918;-72
2022/10/29 09:30:13;;;;;;;27.70;11.90;;;14.30;99.90;;;;;;6127054;19;19941;-72
2022/10/29 09:32:23;;;;;;;20.48;9.48;;;13.80;99.90;;;;;;6126326;19;19931;-72
2022/10/29 09:34:31;;;;;;;21.92;9.95;;;13.80;99.90;;;;;;6126349;19;19925;-72
2022/10/29 09:36:35;;;;;;;18.92;9.75;;;13.40;99.90;;;;;;6124828;19;20319;-72
2022/10/29 09:38:48;;;;;;;22.55;9.73;;;13.70;99.90;;;;;;6126871;19;20365;-71
2022/10/29 09:40:52;;;;;;;20.95;10.20;;;13.50;99.90;;;;;;6125787;19;19925;-71
2022/10/29 09:43:00;;;;;;;21.02;9.85;;;13.40;99.90;;;;;;6125783;19;19978;-72
2022/10/29 09:45:08;;;;;;;22.02;9.90;;;13.70;99.90;;;;;;6125573;19;20021;-72
2022/10/29 09:47:25;;;;;;;27.70;9.68;;;13.70;99.90;;;;;;6125615;19;20212;-72
2022/10/29 09:49:44;;;;;;;21.75;9.80;;;13.70;99.90;;;;;;6128031;19;19930;-70
2022/10/29 09:51:57;;;;;;;22.35;9.07;;;13.70;99.90;;;;;;6131946;19;19925;-72
2022/10/29 09:54:01;;;;;;;19.48;8.30;;;13.90;99.90;;;;;;6130984;19;19940;-72
2022/10/29 09:56:09;;;;;;;22.88;9.52;;;13.80;99.90;;;;;;6129500;19;19935;-72
2022/10/29 09:58:21;;;;;;;17.52;8.80;;;14.00;99.90;;;;;;6130757;19;19911;-72
2022/10/29 10:00:28;;;;;;;23.48;9.23;;;13.90;99.90;;;;;;6130905;19;19917;-72
2022/10/29 10:02:40;;;;;;;21.25;9.73;;;13.70;99.90;;;;;;6131260;19;19937;-71
2022/10/29 10:04:49;;;;;;;18.45;9.45;;;13.70;99.90;;;;;;6130869;19;19933;-71
2022/10/29 10:07:08;;;;;;;21.50;9.35;;;13.80;99.90;;;;;;6130974;19;20351;-71
2022/10/29 10:09:12;;;;;;;20.67;10.23;;;13.80;99.90;;;;;;6131093;19;19937;-71
2022/10/29 10:11:21;;;;;;;17.70;8.63;;;13.70;99.90;;;;;;6130809;19;19914;-71
2022/10/29 10:13:29;;;;;;;16.85;7.95;;;13.70;99.90;;;;;;6130529;19;20335;-71
2022/10/29 10:15:35;;;;;;;20.38;8.25;;;14.20;99.90;;;;;;6130303;19;19915;-71
2022/10/29 10:17:55;;;;;;;19.95;9.23;;;14.40;99.90;;;;;;6131051;19;19918;-72
2022/10/29 10:19:59;;;;;;;17.27;8.57;;;13.90;99.90;;;;;;6130541;19;19937;-71
2022/10/29 10:22:05;;;;;;;24.10;8.73;;;14.00;99.90;;;;;;6130613;19;19911;-71
2022/10/29 10:24:30;;;;;;;19.63;9.20;;;13.90;99.90;;;;;;6130565;19;19914;-71
2022/10/29 10:26:38;;;;;;;22.38;8.43;;;13.90;99.90;;;;;;6129448;19;19918;-71
2022/10/29 10:28:45;;;;;;;18.77;8.48;;;14.30;99.90;;;;;;6130822;19;19919;-72
2022/10/29 10:31:09;;;;;;;19.60;8.68;;;14.40;99.90;;;;;;6130292;19;19919;-71
2022/10/29 10:33:22;;;;;;;18.83;8.18;;;14.50;99.90;;;;;;6129189;19;19931;-71
2022/10/29 10:35:29;;;;;;;21.23;9.63;;;15.00;99.90;;;;;;6128823;19;19977;-71
2022/10/29 10:37:34;;;;;;;23.75;8.63;;;14.60;99.90;;;;;;6129832;19;19910;-72
2022/10/29 10:39:40;;;;;;;18.35;8.35;;;14.70;99.90;;;;;;6130886;19;19919;-72
2022/10/29 10:41:44;;;;;;;18.48;9.35;;;15.00;99.90;;;;;;6129840;19;19911;-71
2022/10/29 10:43:51;;;;;;;17.67;7.60;;;14.50;99.90;;;;;;6130385;19;19919;-72
2022/10/29 10:45:58;;;;;;;21.23;8.55;;;14.90;99.90;;;;;;6129552;19;19919;-72
2022/10/29 10:48:02;;;;;;;18.23;9.02;;;15.20;99.90;;;;;;6130060;19;19925;-72
2022/10/29 10:50:13;;;;;;;19.90;9.13;;;14.90;99.90;;;;;;6129942;19;19922;-72
2022/10/29 10:52:20;;;;;;;15.75;8.65;;;14.90;99.90;;;;;;6129654;19;19911;-73
2022/10/29 10:54:47;;;;;;;22.45;9.85;;;15.00;99.90;;;;;;6129697;19;19907;-72
2022/10/29 10:56:58;;;;;;;17.95;8.43;;;15.60;99.90;;;;;;6127507;19;19915;-72
2022/10/29 10:59:12;;;;;;;19.42;8.05;;;15.00;99.90;;;;;;6129704;19;20338;-72
2022/10/29 11:01:21;;;;;;;14.95;9.32;;;15.90;99.90;;;;;;6128639;19;19910;-72